Time;durP1;ratioP1;P1;durP2;ratioP2;P2;SDS_P1;SDS_P2;PMS_P1;PMS_P2;Temp;Humidity;BMP_temperature;BMP_pressure;BME280_temperature;BME280_humidity;BME280_pressure;Samples;Min_cycle;Max_cycle;Signal;HPM_P1;HPM_P2
2023/05/31 00:02:17;;;;;;;12.85;7.82;;;13.90;99.90;;;;;;5058626;28;20088;-51
2023/05/31 00:04:43;;;;;;;11.02;8.52;;;13.80;99.90;;;;;;5052137;28;20067;-54
2023/05/31 00:07:08;;;;;;;10.35;7.97;;;13.90;99.90;;;;;;5059213;28;20033;-54
2023/05/31 00:09:34;;;;;;;12.32;8.20;;;13.90;99.90;;;;;;5060486;28;20021;-51
2023/05/31 00:12:00;;;;;;;10.93;8.45;;;13.90;99.90;;;;;;5059312;28;20123;-50
2023/05/31 00:14:26;;;;;;;12.40;8.43;;;13.80;99.90;;;;;;5055175;28;20397;-54
2023/05/31 00:16:52;;;;;;;11.18;7.88;;;13.80;99.90;;;;;;5062864;28;20086;-54
2023/05/31 00:19:18;;;;;;;12.95;8.05;;;13.80;99.90;;;;;;5058063;28;20025;-54
2023/05/31 00:21:45;;;;;;;12.27;8.35;;;13.70;99.90;;;;;;5061401;28;20492;-52
2023/05/31 00:24:13;;;;;;;10.80;8.18;;;13.80;99.90;;;;;;5055453;28;20381;-52
2023/05/31 00:26:39;;;;;;;12.40;8.88;;;13.70;99.90;;;;;;5049195;28;20053;-51
2023/05/31 00:29:05;;;;;;;15.43;8.65;;;13.70;99.90;;;;;;5054980;28;20060;-53
2023/05/31 00:31:30;;;;;;;12.25;8.80;;;13.60;99.90;;;;;;5057634;28;20032;-52
2023/05/31 00:33:57;;;;;;;13.55;8.73;;;13.60;99.90;;;;;;5058252;28;20035;-54
2023/05/31 00:36:23;;;;;;;11.60;8.85;;;13.50;99.90;;;;;;5049039;28;20413;-52
2023/05/31 00:38:50;;;;;;;11.38;8.45;;;13.50;99.90;;;;;;5053918;28;20047;-51
2023/05/31 00:41:15;;;;;;;11.20;8.90;;;13.50;99.90;;;;;;5051836;28;20044;-51
2023/05/31 00:43:41;;;;;;;14.85;9.35;;;13.50;99.90;;;;;;5058828;28;20507;-53
2023/05/31 00:46:14;;;;;;;12.40;8.40;;;13.50;99.90;;;;;;5059414;28;20037;-52
2023/05/31 00:48:42;;;;;;;;;;;13.50;99.90;;;;;;5053555;28;20059;-52
2023/05/31 00:51:07;;;;;;;14.10;8.90;;;13.50;99.90;;;;;;5059020;28;19923;-52
2023/05/31 00:53:34;;;;;;;13.68;8.90;;;13.40;99.90;;;;;;5057203;28;20112;-53
2023/05/31 00:56:00;;;;;;;11.77;8.57;;;13.30;99.90;;;;;;5061409;28;20040;-53
2023/05/31 00:58:27;;;;;;;11.35;8.75;;;13.20;99.90;;;;;;5059523;28;20365;-52
2023/05/31 01:00:53;;;;;;;14.55;9.60;;;13.20;99.90;;;;;;5055722;28;20059;-52
2023/05/31 01:03:20;;;;;;;11.88;9.10;;;13.30;99.90;;;;;;5056824;28;20535;-53
2023/05/31 01:05:46;;;;;;;12.65;9.27;;;13.30;99.90;;;;;;5050593;28;20063;-53
2023/05/31 01:08:14;;;;;;;12.30;10.02;;;13.20;99.90;;;;;;5054923;28;20056;-50
2023/05/31 01:10:40;;;;;;;11.07;9.02;;;13.30;99.90;;;;;;5055994;28;20059;-51
2023/05/31 01:13:12;;;;;;;11.88;9.30;;;13.20;99.90;;;;;;5055456;28;20041;-52
2023/05/31 01:15:51;;;;;;;12.85;9.55;;;13.20;99.90;;;;;;5054272;28;20446;-50
2023/05/31 01:18:25;;;;;;;12.13;8.90;;;13.20;99.90;;;;;;5054691;28;20028;-52
2023/05/31 01:20:53;;;;;;;12.23;9.00;;;13.10;99.90;;;;;;5052674;28;20039;-51
2023/05/31 01:23:44;;;;;;;12.45;9.60;;;13.10;99.90;;;;;;5060197;28;20132;-52
2023/05/31 01:26:48;;;;;;;12.30;8.48;;;13.10;99.90;;;;;;5052867;28;20040;-52
2023/05/31 01:29:18;;;;;;;13.18;9.40;;;13.00;99.90;;;;;;5054583;28;20055;-53
2023/05/31 01:31:45;;;;;;;13.25;9.18;;;13.00;99.90;;;;;;5058535;28;20128;-52
2023/05/31 01:34:12;;;;;;;12.88;9.20;;;12.90;99.90;;;;;;5053038;28;20037;-53
2023/05/31 01:36:38;;;;;;;13.07;9.30;;;12.90;99.90;;;;;;5056071;28;20374;-53
2023/05/31 01:39:04;;;;;;;12.82;9.60;;;12.90;99.90;;;;;;5052106;28;20029;-53
2023/05/31 01:41:32;;;;;;;12.80;9.35;;;12.90;99.90;;;;;;5053762;28;20427;-52
2023/05/31 01:43:59;;;;;;;14.38;10.07;;;13.00;99.90;;;;;;5053168;28;20033;-52
2023/05/31 01:46:25;;;;;;;14.30;10.25;;;13.00;99.90;;;;;;5049209;28;20047;-54
2023/05/31 01:48:52;;;;;;;12.88;9.45;;;13.10;99.90;;;;;;5058596;28;20128;-50
2023/05/31 01:51:20;;;;;;;13.27;9.68;;;13.10;99.90;;;;;;5057337;28;20029;-53
2023/05/31 01:53:46;;;;;;;13.32;9.48;;;12.90;99.90;;;;;;5055866;28;20051;-52
2023/05/31 01:56:12;;;;;;;11.32;9.90;;;12.80;99.90;;;;;;5055806;28;20033;-50
2023/05/31 01:58:44;;;;;;;13.60;9.95;;;12.80;99.90;;;;;;5059130;28;20063;-50
2023/05/31 02:01:11;;;;;;;11.18;9.70;;;12.80;99.90;;;;;;5056528;28;20029;-53
2023/05/31 02:03:40;;;;;;;13.25;10.18;;;12.70;99.90;;;;;;5059900;28;20511;-53
2023/05/31 02:06:06;;;;;;;16.30;9.57;;;12.60;99.90;;;;;;5054524;28;20141;-51
2023/05/31 02:08:32;;;;;;;13.57;10.02;;;12.60;99.90;;;;;;5057645;28;20174;-52
2023/05/31 02:10:57;;;;;;;12.23;9.63;;;12.60;99.90;;;;;;5061673;28;20035;-51
2023/05/31 02:13:27;;;;;;;13.45;9.93;;;12.60;99.90;;;;;;5058395;28;20040;-52
2023/05/31 02:15:54;;;;;;;13.10;9.68;;;12.60;99.90;;;;;;5055236;28;20123;-51
2023/05/31 02:18:21;;;;;;;14.60;9.85;;;12.50;99.90;;;;;;5050919;28;20048;-53
2023/05/31 02:20:47;;;;;;;14.90;9.45;;;12.70;99.90;;;;;;5058254;28;20041;-53
2023/05/31 02:23:13;;;;;;;14.63;9.60;;;12.70;99.90;;;;;;5058404;28;20077;-53
2023/05/31 02:25:38;;;;;;;12.43;9.50;;;12.60;99.90;;;;;;5058964;28;20559;-53
2023/05/31 02:28:04;;;;;;;11.55;9.93;;;12.70;99.90;;;;;;5053490;28;20119;-52
2023/05/31 02:30:31;;;;;;;13.77;10.57;;;12.70;99.90;;;;;;5048614;28;20492;-53
2023/05/31 02:32:56;;;;;;;13.70;9.73;;;12.60;99.90;;;;;;5043267;28;20159;-51
2023/05/31 02:35:22;;;;;;;14.23;10.38;;;12.60;99.90;;;;;;5044001;28;20120;-54
2023/05/31 02:37:48;;;;;;;14.27;10.30;;;12.60;99.90;;;;;;5042520;28;20043;-51
2023/05/31 02:40:13;;;;;;;12.98;10.60;;;12.50;99.90;;;;;;5043638;28;20225;-52
2023/05/31 02:42:41;;;;;;;13.18;10.52;;;12.50;99.90;;;;;;5058762;28;20115;-52
2023/05/31 02:45:07;;;;;;;13.07;10.38;;;12.50;99.90;;;;;;5058881;28;20041;-49
2023/05/31 02:47:35;;;;;;;12.55;10.20;;;12.50;99.90;;;;;;5058476;28;20024;-53
2023/05/31 02:50:00;;;;;;;14.15;10.07;;;12.50;99.90;;;;;;5051411;28;20497;-52
2023/05/31 02:52:26;;;;;;;20.60;10.80;;;12.60;99.90;;;;;;5054943;28;20025;-50
2023/05/31 02:54:52;;;;;;;16.17;10.43;;;12.60;99.90;;;;;;5060492;28;20067;-51
2023/05/31 02:57:18;;;;;;;15.05;10.18;;;12.60;99.90;;;;;;5059855;28;20033;-53
2023/05/31 02:59:44;;;;;;;13.43;9.95;;;12.60;99.90;;;;;;5059737;28;20657;-52
2023/05/31 03:02:10;;;;;;;13.23;10.52;;;12.50;99.90;;;;;;5061574;28;20067;-51
2023/05/31 03:04:36;;;;;;;13.13;10.32;;;12.60;99.90;;;;;;5052675;28;20087;-54
2023/05/31 03:07:01;;;;;;;13.90;10.45;;;12.50;99.90;;;;;;5060532;28;20033;-50
2023/05/31 03:09:27;;;;;;;15.18;10.93;;;12.40;99.90;;;;;;5061349;28;20044;-49
2023/05/31 03:11:53;;;;;;;13.10;10.25;;;12.40;99.90;;;;;;5058697;28;20421;-50
2023/05/31 03:14:18;;;;;;;15.15;10.55;;;12.40;99.90;;;;;;5060579;28;20039;-53
2023/05/31 03:16:44;;;;;;;16.25;11.10;;;12.40;99.90;;;;;;5056492;28;20119;-52
2023/05/31 03:19:12;;;;;;;13.68;10.38;;;12.40;99.90;;;;;;5057663;28;20488;-53
2023/05/31 03:21:38;;;;;;;13.63;9.85;;;12.40;99.90;;;;;;5054957;28;20481;-49
2023/05/31 03:24:03;;;;;;;16.38;10.77;;;12.40;99.90;;;;;;5057106;28;20082;-52
2023/05/31 03:26:29;;;;;;;16.75;10.70;;;12.30;99.90;;;;;;5054591;28;20467;-51
2023/05/31 03:28:55;;;;;;;16.63;10.82;;;12.40;99.90;;;;;;5057096;28;20067;-49
2023/05/31 03:31:20;;;;;;;14.38;10.95;;;12.40;99.90;;;;;;5058301;28;20047;-53
2023/05/31 03:33:46;;;;;;;15.20;11.45;;;12.30;99.90;;;;;;5060090;28;20037;-51
2023/05/31 03:36:11;;;;;;;15.70;11.30;;;12.30;99.90;;;;;;5057803;28;20029;-50
2023/05/31 03:38:37;;;;;;;17.00;11.48;;;12.40;99.90;;;;;;5057185;28;20078;-53
2023/05/31 03:41:02;;;;;;;16.38;11.07;;;12.40;99.90;;;;;;5054938;28;20499;-53
2023/05/31 03:43:28;;;;;;;17.35;11.55;;;12.30;99.90;;;;;;5051799;28;20480;-49
2023/05/31 03:45:54;;;;;;;16.67;11.05;;;12.30;99.90;;;;;;5047062;28;20056;-52
2023/05/31 03:48:20;;;;;;;16.98;12.18;;;12.30;99.90;;;;;;5052981;28;20496;-51
2023/05/31 03:50:45;;;;;;;16.45;11.07;;;12.30;99.90;;;;;;5054943;28;20033;-54
2023/05/31 03:53:11;;;;;;;16.63;11.45;;;12.20;99.90;;;;;;5053562;28;20028;-52
2023/05/31 03:55:36;;;;;;;17.77;12.30;;;12.30;99.90;;;;;;5050564;28;20037;-52
2023/05/31 03:58:02;;;;;;;15.85;11.90;;;12.30;99.90;;;;;;5048509;28;20548;-52
2023/05/31 04:00:28;;;;;;;14.23;10.98;;;12.30;99.90;;;;;;5051786;28;20086;-49
2023/05/31 04:02:54;;;;;;;15.60;11.30;;;12.30;99.90;;;;;;5058002;28;20043;-53
2023/05/31 04:05:20;;;;;;;14.65;11.30;;;12.30;99.90;;;;;;5062159;28;20523;-53
2023/05/31 04:07:45;;;;;;;17.65;11.65;;;12.40;99.90;;;;;;5051817;28;20036;-50
2023/05/31 04:10:11;;;;;;;13.65;11.50;;;12.40;99.90;;;;;;5054524;28;20047;-50
2023/05/31 04:12:36;;;;;;;16.10;11.07;;;12.30;99.90;;;;;;5055036;28;20020;-53
2023/05/31 04:15:02;;;;;;;16.05;11.40;;;12.40;99.90;;;;;;5052006;28;20040;-52
2023/05/31 04:17:28;;;;;;;16.63;11.52;;;12.40;99.90;;;;;;5057624;28;20041;-53
2023/05/31 04:19:53;;;;;;;15.88;11.45;;;12.40;99.90;;;;;;5058078;28;20091;-51
2023/05/31 04:22:20;;;;;;;16.15;11.75;;;12.50;99.90;;;;;;5060784;28;20037;-55
2023/05/31 04:24:46;;;;;;;23.25;11.23;;;12.60;99.90;;;;;;5063668;28;20554;-53
2023/05/31 04:27:18;;;;;;;18.52;11.02;;;12.60;99.90;;;;;;5056847;28;20037;-50
2023/05/31 04:29:45;;;;;;;15.07;10.95;;;12.70;99.90;;;;;;5054267;28;20041;-51
2023/05/31 04:32:14;;;;;;;17.73;12.02;;;12.80;99.90;;;;;;5062528;28;20041;-53
2023/05/31 04:34:40;;;;;;;16.63;11.48;;;12.70;99.90;;;;;;5056246;28;20032;-49
2023/05/31 04:37:07;;;;;;;16.65;11.52;;;12.80;99.90;;;;;;5051878;28;20090;-49
2023/05/31 04:39:32;;;;;;;16.20;11.43;;;12.80;99.90;;;;;;5053457;28;20033;-52
2023/05/31 04:41:59;;;;;;;14.77;10.85;;;13.70;99.90;;;;;;5058684;28;20040;-52
2023/05/31 04:44:24;;;;;;;17.30;11.43;;;13.30;99.90;;;;;;5060350;28;20028;-52
2023/05/31 04:46:50;;;;;;;18.52;11.88;;;13.10;99.90;;;;;;5050083;28;20056;-53
2023/05/31 04:49:16;;;;;;;17.73;12.32;;;13.10;99.90;;;;;;5054971;28;20120;-52
2023/05/31 04:51:42;;;;;;;17.73;11.40;;;13.20;99.90;;;;;;5057528;28;20064;-53
2023/05/31 04:54:08;;;;;;;20.42;12.63;;;13.30;99.90;;;;;;5054504;28;20022;-54
2023/05/31 04:56:33;;;;;;;17.73;11.88;;;13.30;99.90;;;;;;5060036;28;20104;-54
2023/05/31 04:58:59;;;;;;;16.42;11.13;;;13.30;99.90;;;;;;5057012;28;20029;-52
2023/05/31 05:01:25;;;;;;;15.95;10.57;;;13.50;99.90;;;;;;5061777;28;20028;-52
2023/05/31 05:03:52;;;;;;;19.15;11.63;;;13.50;99.90;;;;;;5055522;28;20068;-54
2023/05/31 05:06:18;;;;;;;18.88;11.40;;;13.50;99.90;;;;;;5060653;28;20104;-53
2023/05/31 05:08:45;;;;;;;16.75;12.00;;;13.30;99.90;;;;;;5061899;28;20056;-55
2023/05/31 05:11:11;;;;;;;17.60;11.02;;;13.50;99.90;;;;;;5055436;28;20040;-53
2023/05/31 05:13:37;;;;;;;19.77;12.25;;;13.60;99.90;;;;;;5054100;28;20075;-54
2023/05/31 05:16:03;;;;;;;16.90;11.77;;;13.50;99.90;;;;;;5056010;28;20811;-53
2023/05/31 05:18:29;;;;;;;16.67;11.55;;;13.50;99.90;;;;;;5055168;28;20029;-52
2023/05/31 05:20:56;;;;;;;17.80;11.85;;;13.70;99.90;;;;;;5050174;28;20418;-52
2023/05/31 05:23:22;;;;;;;17.20;11.55;;;13.70;99.90;;;;;;5051363;28;20037;-52
2023/05/31 05:25:48;;;;;;;16.52;11.73;;;13.90;99.90;;;;;;5055211;28;20041;-53
2023/05/31 05:28:13;;;;;;;20.05;10.93;;;13.80;99.90;;;;;;5060283;28;20502;-54
2023/05/31 05:30:41;;;;;;;17.08;10.93;;;14.10;99.90;;;;;;5057688;28;20032;-52
2023/05/31 05:33:07;;;;;;;19.90;10.57;;;14.10;99.90;;;;;;5060021;28;20112;-52
2023/05/31 05:35:33;;;;;;;15.35;11.20;;;14.40;99.90;;;;;;5055589;28;20120;-51
2023/05/31 05:37:59;;;;;;;17.90;11.80;;;14.60;99.90;;;;;;5054144;28;20021;-55
2023/05/31 05:40:25;;;;;;;18.70;10.75;;;14.60;99.90;;;;;;5056071;28;20120;-53
2023/05/31 05:42:53;;;;;;;20.67;11.15;;;14.40;99.90;;;;;;5060006;28;20135;-53
2023/05/31 05:45:18;;;;;;;16.48;11.07;;;14.50;99.90;;;;;;5058926;28;20062;-52
2023/05/31 05:47:45;;;;;;;14.73;10.25;;;14.60;99.90;;;;;;5052780;28;20033;-54
2023/05/31 05:50:14;;;;;;;21.65;10.88;;;14.80;99.90;;;;;;5054719;28;20399;-53
2023/05/31 05:52:39;;;;;;;19.98;11.57;;;14.80;99.90;;;;;;5051104;28;20047;-54
2023/05/31 05:55:05;;;;;;;16.58;10.95;;;14.80;99.90;;;;;;5057357;28;20032;-56
2023/05/31 05:57:31;;;;;;;14.30;10.90;;;15.00;99.90;;;;;;5060192;28;20115;-54
2023/05/31 05:59:57;;;;;;;14.80;10.73;;;15.00;99.90;;;;;;5053087;28;20045;-55
2023/05/31 06:02:23;;;;;;;17.38;11.02;;;15.10;99.90;;;;;;5055486;28;20063;-53
2023/05/31 06:04:49;;;;;;;15.48;10.45;;;15.20;99.90;;;;;;5060538;28;20492;-52
2023/05/31 06:07:16;;;;;;;15.85;10.48;;;15.20;99.90;;;;;;5053959;28;20033;-54
2023/05/31 06:09:41;;;;;;;16.92;10.32;;;15.40;99.90;;;;;;5057856;28;20542;-52
2023/05/31 06:12:08;;;;;;;19.67;10.60;;;15.60;99.90;;;;;;5056481;28;20037;-54
2023/05/31 06:14:33;;;;;;;19.17;10.43;;;16.40;99.90;;;;;;5059997;28;20036;-55
2023/05/31 06:16:59;;;;;;;19.42;10.55;;;15.60;99.90;;;;;;5054924;28;20032;-54
2023/05/31 06:19:24;;;;;;;15.70;10.25;;;15.90;99.90;;;;;;5059005;28;20063;-52
2023/05/31 06:21:50;;;;;;;16.42;10.15;;;16.00;99.90;;;;;;5059042;28;20400;-52
2023/05/31 06:24:16;;;;;;;18.58;8.95;;;15.90;99.90;;;;;;5055903;28;20506;-55
2023/05/31 06:26:42;;;;;;;13.77;9.77;;;16.30;99.90;;;;;;5058242;28;20535;-54
2023/05/31 06:29:07;;;;;;;14.68;8.88;;;16.50;99.90;;;;;;5055418;28;21453;-54
2023/05/31 06:31:33;;;;;;;15.02;9.48;;;16.50;99.90;;;;;;5060013;28;20545;-55
2023/05/31 06:33:59;;;;;;;14.43;8.35;;;16.70;99.90;;;;;;5053141;28;20128;-54
2023/05/31 06:36:25;;;;;;;13.63;9.20;;;16.70;99.90;;;;;;5047348;28;20134;-53
2023/05/31 06:38:51;;;;;;;15.25;9.70;;;16.30;99.90;;;;;;5059060;28;20044;-54
2023/05/31 06:41:16;;;;;;;17.98;9.88;;;16.40;99.90;;;;;;5054657;28;20041;-54
2023/05/31 06:43:42;;;;;;;18.65;9.50;;;16.40;99.90;;;;;;5060522;28;20040;-52
2023/05/31 06:46:10;;;;;;;15.85;9.82;;;16.60;99.90;;;;;;5049382;28;20029;-54
2023/05/31 06:48:35;;;;;;;18.05;9.40;;;16.70;99.90;;;;;;5057883;28;20568;-52
2023/05/31 06:51:01;;;;;;;16.70;9.77;;;16.70;99.90;;;;;;5046916;28;20044;-54
2023/05/31 06:53:27;;;;;;;15.30;9.05;;;16.60;99.90;;;;;;5056783;28;20028;-54
2023/05/31 06:55:52;;;;;;;17.83;9.93;;;16.50;99.90;;;;;;5054214;28;20029;-53
2023/05/31 06:58:18;;;;;;;16.83;9.45;;;16.50;99.90;;;;;;5051645;28;20025;-55
2023/05/31 07:00:43;;;;;;;15.57;9.00;;;16.60;99.90;;;;;;5054112;28;20040;-53
2023/05/31 07:03:09;;;;;;;22.40;9.55;;;16.80;99.90;;;;;;5051497;28;20040;-55
2023/05/31 07:05:35;;;;;;;15.25;8.45;;;16.70;99.90;;;;;;5057083;28;20064;-54
2023/05/31 07:08:00;;;;;;;16.55;9.30;;;16.70;99.90;;;;;;5047504;28;20037;-54
2023/05/31 07:10:27;;;;;;;20.98;9.63;;;16.80;99.90;;;;;;5046593;28;20033;-54
2023/05/31 07:12:53;;;;;;;18.55;9.07;;;17.10;99.90;;;;;;5050722;28;20147;-55
2023/05/31 07:15:19;;;;;;;19.10;8.90;;;17.10;99.90;;;;;;5051679;28;20094;-55
2023/05/31 07:17:45;;;;;;;15.65;8.63;;;17.00;99.90;;;;;;5056047;28;20045;-54
2023/05/31 07:20:11;;;;;;;18.65;9.05;;;17.20;99.90;;;;;;5052277;28;20040;-55
2023/05/31 07:22:37;;;;;;;16.90;8.88;;;17.30;99.90;;;;;;5055325;28;20144;-55
2023/05/31 07:25:04;;;;;;;19.05;8.90;;;;;;;;;;5054279;28;20336;-55
2023/05/31 07:27:30;;;;;;;16.42;8.10;;;17.40;99.90;;;;;;5048609;28;20512;-53
2023/05/31 07:29:56;;;;;;;17.52;8.45;;;17.60;99.90;;;;;;5047893;28;20102;-55
2023/05/31 07:32:22;;;;;;;15.88;7.85;;;;;;;;;;5048550;28;20068;-56
2023/05/31 07:34:48;;;;;;;13.88;7.80;;;17.70;99.90;;;;;;5051387;28;20500;-54
2023/05/31 07:37:13;;;;;;;12.70;7.72;;;17.90;99.90;;;;;;5051923;28;20017;-55
2023/05/31 07:39:39;;;;;;;14.75;7.57;;;18.10;99.90;;;;;;5052345;28;20025;-55
2023/05/31 07:42:05;;;;;;;14.77;8.05;;;18.10;99.90;;;;;;5055213;28;20033;-55
2023/05/31 07:44:31;;;;;;;14.73;7.47;;;18.00;99.90;;;;;;5054328;28;20040;-54
2023/05/31 07:46:56;;;;;;;15.13;7.93;;;18.00;99.90;;;;;;5052300;28;20041;-55
2023/05/31 07:49:22;;;;;;;15.07;7.47;;;18.00;99.90;;;;;;5052037;28;20027;-56
2023/05/31 07:51:48;;;;;;;17.88;8.50;;;18.10;99.90;;;;;;5051765;28;20088;-52
2023/05/31 07:54:13;;;;;;;13.00;8.02;;;18.40;99.90;;;;;;5047844;28;20395;-53
2023/05/31 07:56:40;;;;;;;14.77;7.13;;;18.40;99.90;;;;;;5047657;28;20039;-47
2023/05/31 07:59:06;;;;;;;16.95;7.45;;;18.50;99.90;;;;;;5052948;28;20567;-52
2023/05/31 08:01:33;;;;;;;15.38;6.65;;;18.50;99.90;;;;;;5058407;28;20115;-52
2023/05/31 08:04:06;;;;;;;15.65;6.68;;;18.70;99.90;;;;;;5055376;28;20033;-52
2023/05/31 08:06:32;;;;;;;;;;;18.80;99.90;;;;;;5053077;28;20043;-51
2023/05/31 08:08:58;;;;;;;17.00;6.57;;;18.80;99.90;;;;;;5055181;28;19920;-51
2023/05/31 08:11:25;;;;;;;14.63;6.90;;;18.90;99.90;;;;;;5048644;28;20547;-51
2023/05/31 08:13:51;;;;;;;13.55;6.82;;;19.10;99.90;;;;;;5053845;28;20027;-50
2023/05/31 08:16:17;;;;;;;17.83;6.95;;;19.20;99.90;;;;;;5053958;28;20411;-51
2023/05/31 08:18:43;;;;;;;18.23;6.78;;;19.10;99.90;;;;;;5052235;28;20040;-52
2023/05/31 08:21:09;;;;;;;18.08;6.63;;;19.20;99.90;;;;;;5056217;28;20128;-49
2023/05/31 08:23:35;;;;;;;14.15;6.22;;;19.30;99.90;;;;;;5058885;28;20116;-50
2023/05/31 08:26:00;;;;;;;17.63;7.25;;;19.50;99.90;;;;;;5049796;28;20065;-50
2023/05/31 08:28:26;;;;;;;12.65;6.00;;;19.40;99.90;;;;;;5051387;28;20041;-51
2023/05/31 08:30:52;;;;;;;14.02;6.35;;;19.60;99.90;;;;;;5054493;28;20789;-50
2023/05/31 08:33:18;;;;;;;21.00;6.57;;;19.50;99.90;;;;;;5056260;28;20211;-50
2023/05/31 08:35:43;;;;;;;11.70;5.78;;;19.40;99.90;;;;;;5055114;28;20056;-51
2023/05/31 08:38:09;;;;;;;16.60;6.35;;;19.60;99.90;;;;;;5051481;28;20029;-51
2023/05/31 08:40:35;;;;;;;19.17;6.00;;;20.00;99.90;;;;;;5058019;28;20116;-53
2023/05/31 08:43:07;;;;;;;13.40;6.22;;;20.20;99.90;;;;;;5056971;28;20036;-52
2023/05/31 08:45:34;;;;;;;12.57;5.72;;;20.30;99.90;;;;;;5057468;28;20488;-53
2023/05/31 08:48:29;;;;;;;9.95;4.97;;;20.30;99.90;;;;;;5060134;28;20029;-52
2023/05/31 08:50:56;;;;;;;12.18;4.90;;;20.30;99.90;;;;;;5047351;28;20346;-53
2023/05/31 08:53:25;;;;;;;15.25;5.25;;;20.50;99.90;;;;;;5054057;28;20041;-53
2023/05/31 08:55:52;;;;;;;14.70;5.55;;;20.50;99.90;;;;;;5051446;28;20174;-53
2023/05/31 08:58:19;;;;;;;17.73;5.18;;;20.80;99.90;;;;;;5051170;28;20130;-51
2023/05/31 09:00:46;;;;;;;20.88;4.97;;;20.60;99.90;;;;;;5061031;28;20039;-53
2023/05/31 09:03:11;;;;;;;10.55;4.75;;;20.70;99.90;;;;;;5050751;28;20051;-53
2023/05/31 09:05:37;;;;;;;13.07;4.72;;;20.80;99.90;;;;;;5054544;28;20048;-56
2023/05/31 09:08:03;;;;;;;10.35;4.50;;;21.00;99.90;;;;;;5050914;28;20120;-52
2023/05/31 09:10:29;;;;;;;14.75;4.60;;;21.10;99.90;;;;;;5051934;28;20456;-53
2023/05/31 09:12:57;;;;;;;12.00;4.45;;;21.20;99.90;;;;;;5054739;28;20040;-54
2023/05/31 09:15:24;;;;;;;11.10;5.40;;;21.10;99.90;;;;;;5054266;28;20492;-54
2023/05/31 09:17:50;;;;;;;14.30;4.82;;;20.50;99.90;;;;;;5052594;28;20453;-54
2023/05/31 09:20:17;;;;;;;21.42;5.05;;;20.90;99.90;;;;;;5049504;28;20024;-56
2023/05/31 09:22:49;;;;;;;12.05;4.35;;;21.10;99.90;;;;;;5052843;28;20032;-55
2023/05/31 09:25:15;;;;;;;12.52;3.90;;;21.30;99.90;;;;;;5054016;28;20202;-55
2023/05/31 09:27:41;;;;;;;13.38;3.88;;;21.40;99.90;;;;;;5047147;28;20166;-55
2023/05/31 09:30:12;;;;;;;12.13;3.85;;;21.40;99.90;;;;;;5050610;28;20112;-55
2023/05/31 09:32:38;;;;;;;8.93;3.58;;;21.40;99.90;;;;;;5053818;28;20044;-56
2023/05/31 09:35:15;;;;;;;12.48;3.85;;;21.60;99.90;;;;;;5049516;28;20056;-53
2023/05/31 09:37:46;;;;;;;11.43;3.83;;;21.60;99.90;;;;;;5049455;28;20550;-52
2023/05/31 09:40:31;;;;;;;9.48;4.00;;;21.50;99.90;;;;;;5047502;28;20032;-53
2023/05/31 09:42:57;;;;;;;11.48;3.58;;;21.60;99.90;;;;;;5056047;28;20044;-54
2023/05/31 09:45:23;;;;;;;15.38;3.45;;;21.40;99.90;;;;;;5057622;28;20048;-52
2023/05/31 09:47:49;;;;;;;11.77;3.40;;;22.10;99.90;;;;;;5051707;28;20033;-54
2023/05/31 09:50:17;;;;;;;10.55;3.60;;;21.80;99.90;;;;;;5055436;28;20037;-53
2023/05/31 09:52:47;;;;;;;10.85;3.05;;;21.80;99.90;;;;;;5053885;28;20033;-52
2023/05/31 09:55:14;;;;;;;10.27;3.40;;;21.80;99.90;;;;;;5053729;28;20174;-53
2023/05/31 09:57:41;;;;;;;7.90;3.13;;;21.90;99.90;;;;;;5056089;28;20059;-52
2023/05/31 10:00:17;;;;;;;7.22;2.90;;;21.80;99.90;;;;;;5051429;28;20029;-52
2023/05/31 10:02:44;;;;;;;9.82;3.22;;;22.00;99.90;;;;;;5050314;28;20093;-53
2023/05/31 10:05:11;;;;;;;12.50;3.30;;;22.00;99.90;;;;;;5051575;28;20075;-54
2023/05/31 10:07:42;;;;;;;10.57;3.63;;;22.10;99.90;;;;;;5055464;28;20078;-54
2023/05/31 10:10:08;;;;;;;7.90;3.10;;;22.00;99.90;;;;;;5048564;28;20029;-54
2023/05/31 10:12:57;;;;;;;9.05;2.60;;;22.10;99.90;;;;;;5055050;28;20031;-53
2023/05/31 10:15:24;;;;;;;7.45;2.75;;;22.20;99.90;;;;;;5049787;28;20116;-55
2023/05/31 10:18:09;;;;;;;10.77;2.75;;;22.10;99.90;;;;;;5053858;28;20124;-54
2023/05/31 10:20:41;;;;;;;9.75;2.90;;;22.10;99.90;;;;;;5058209;28;20025;-55
2023/05/31 10:23:14;;;;;;;11.88;3.30;;;22.30;99.90;;;;;;5048163;28;20064;-54
2023/05/31 10:26:15;;;;;;;6.90;2.88;;;22.40;99.90;;;;;;5057387;28;20028;-54
2023/05/31 10:28:45;;;;;;;11.05;3.47;;;22.30;99.90;;;;;;5055953;28;20028;-54
2023/05/31 10:31:11;;;;;;;7.65;2.67;;;22.60;99.90;;;;;;5052155;28;20116;-55
2023/05/31 10:33:40;;;;;;;6.18;2.17;;;22.80;99.90;;;;;;5052824;28;20156;-54
2023/05/31 10:36:06;;;;;;;7.20;2.40;;;22.50;99.00;;;;;;5044063;28;20091;-54
2023/05/31 10:38:45;;;;;;;9.07;2.60;;;22.50;99.90;;;;;;5049182;28;20405;-55
2023/05/31 10:41:19;;;;;;;7.03;2.45;;;22.40;99.90;;;;;;5044610;28;20128;-54
2023/05/31 10:44:07;;;;;;;9.45;2.25;;;22.60;99.90;;;;;;5051983;28;20048;-55
2023/05/31 10:46:34;;;;;;;5.15;2.17;;;22.60;99.50;;;;;;5049796;28;20047;-55
2023/05/31 10:49:02;;;;;;;10.48;2.42;;;22.50;97.20;;;;;;5047113;28;20033;-55
2023/05/31 10:51:45;;;;;;;7.07;2.45;;;22.40;97.50;;;;;;5050373;28;20484;-55
2023/05/31 10:54:30;;;;;;;10.07;2.92;;;22.60;99.10;;;;;;5049241;28;20063;-55
2023/05/31 10:56:57;;;;;;;6.35;2.85;;;22.40;99.60;;;;;;5049867;28;20449;-55
2023/05/31 10:59:25;;;;;;;8.63;2.85;;;22.50;98.50;;;;;;5045538;28;20480;-55
2023/05/31 11:01:51;;;;;;;9.48;2.83;;;22.70;99.60;;;;;;5045675;28;20036;-55
2023/05/31 11:04:26;;;;;;;5.78;2.35;;;22.80;98.90;;;;;;5050134;28;20060;-55
2023/05/31 11:06:52;;;;;;;8.48;2.85;;;22.70;98.10;;;;;;5050447;28;20040;-55
2023/05/31 11:09:18;;;;;;;9.32;2.75;;;22.70;99.30;;;;;;5045334;28;20504;-55
2023/05/31 11:11:46;;;;;;;6.00;2.30;;;22.80;97.50;;;;;;5052693;28;20119;-55
2023/05/31 11:14:26;;;;;;;5.90;2.45;;;22.90;98.30;;;;;;5057305;28;20468;-55
2023/05/31 11:16:56;;;;;;;8.40;2.50;;;22.90;98.20;;;;;;5051953;28;20579;-55
2023/05/31 11:19:30;;;;;;;8.10;2.80;;;22.70;97.30;;;;;;5048705;28;20037;-55
2023/05/31 11:21:59;;;;;;;10.70;2.90;;;22.70;97.10;;;;;;5049523;28;20063;-55
2023/05/31 11:24:26;;;;;;;10.35;2.47;;;22.80;96.80;;;;;;5047795;28;20121;-55
2023/05/31 11:27:01;;;;;;;6.82;2.50;;;22.90;97.90;;;;;;5046639;28;20033;-55
2023/05/31 11:29:44;;;;;;;8.88;2.50;;;22.90;96.70;;;;;;5046935;28;20618;-55
2023/05/31 11:32:13;;;;;;;;;;;22.90;97.30;;;;;;5051747;28;20041;-54
2023/05/31 11:34:53;;;;;;;9.75;2.40;;;23.00;96.40;;;;;;5048301;28;20295;-55
2023/05/31 11:37:21;;;;;;;5.13;2.35;;;23.10;98.10;;;;;;5049025;28;20033;-53
2023/05/31 11:39:46;;;;;;;7.90;2.63;;;23.20;95.00;;;;;;5045481;28;20033;-55
2023/05/31 11:42:14;;;;;;;7.28;2.22;;;23.00;92.70;;;;;;5051224;28;20032;-59
2023/05/31 11:44:44;;;;;;;8.88;2.40;;;22.80;92.30;;;;;;5052221;28;20037;-58
2023/05/31 11:47:11;;;;;;;11.10;2.47;;;22.80;94.20;;;;;;5050604;28;20124;-59
2023/05/31 11:49:37;;;;;;;8.32;2.55;;;23.00;96.20;;;;;;5048762;28;20028;-59
2023/05/31 11:52:03;;;;;;;7.93;2.53;;;23.10;93.80;;;;;;5042926;28;20033;-58
2023/05/31 11:54:32;;;;;;;10.18;2.58;;;23.10;95.20;;;;;;5051241;28;20060;-59
2023/05/31 11:57:06;;;;;;;7.30;2.20;;;23.00;92.90;;;;;;5049973;28;20155;-59
2023/05/31 11:59:33;;;;;;;8.55;2.50;;;23.00;95.40;;;;;;5051701;28;20091;-59
2023/05/31 12:02:03;;;;;;;7.43;2.30;;;23.10;93.20;;;;;;5049707;28;20471;-59
2023/05/31 12:04:40;;;;;;;9.35;2.80;;;23.10;91.60;;;;;;5047378;28;20357;-59
2023/05/31 12:07:19;;;;;;;6.72;2.25;;;22.90;95.30;;;;;;5045919;28;20517;-59
2023/05/31 12:09:46;;;;;;;8.32;2.50;;;23.10;95.60;;;;;;5051589;28;20037;-59
2023/05/31 12:12:12;;;;;;;7.53;2.50;;;23.10;94.50;;;;;;5048440;28;20420;-59
2023/05/31 12:14:37;;;;;;;6.88;2.30;;;22.90;91.30;;;;;;5055340;28;20082;-59
2023/05/31 12:17:04;;;;;;;14.50;2.60;;;23.10;93.20;;;;;;5049806;28;20039;-59
2023/05/31 12:19:35;;;;;;;5.65;2.67;;;23.10;89.80;;;;;;5048141;28;20104;-59
2023/05/31 12:22:02;;;;;;;8.43;2.30;;;23.10;88.80;;;;;;5050661;28;20032;-59
2023/05/31 12:24:28;;;;;;;6.32;2.22;;;23.30;92.00;;;;;;5053016;28;20032;-59
2023/05/31 12:26:54;;;;;;;7.90;2.47;;;23.40;91.80;;;;;;5052746;28;20039;-59
2023/05/31 12:29:27;;;;;;;11.13;2.50;;;23.20;90.40;;;;;;5057888;28;20029;-59
2023/05/31 12:32:03;;;;;;;7.53;2.35;;;23.10;91.60;;;;;;5058615;28;20400;-59
2023/05/31 12:34:32;;;;;;;6.15;2.55;;;23.40;93.70;;;;;;5053778;28;20606;-59
2023/05/31 12:37:00;;;;;;;11.50;2.30;;;23.40;91.80;;;;;;5051759;28;20029;-59
2023/05/31 12:39:26;;;;;;;6.38;2.75;;;23.20;90.20;;;;;;5053850;28;20033;-58
2023/05/31 12:41:52;;;;;;;6.65;2.03;;;23.20;89.40;;;;;;5056204;28;20033;-59